Time;durP1;ratioP1;P1;durP2;ratioP2;P2;SDS_P1;SDS_P2;PMS_P1;PMS_P2;Temp;Humidity;BMP_temperature;BMP_pressure;BME280_temperature;BME280_humidity;BME280_pressure;Samples;Min_cycle;Max_cycle;Signal;HPM_P1;HPM_P2
2022/05/23 00:01:18;;;;;;;12.98;7.43;;;;;;;17.37;62.11;100704.34;4969562;28;20034;-56
2022/05/23 00:03:43;;;;;;;14.95;8.13;;;;;;;17.35;62.04;100703.75;4969068;28;20055;-56
2022/05/23 00:06:08;;;;;;;11.15;7.43;;;;;;;17.38;62.05;100700.63;4970116;28;20027;-55
2022/05/23 00:08:33;;;;;;;14.88;7.70;;;;;;;17.40;61.72;100700.41;4971634;28;20400;-53
2022/05/23 00:10:59;;;;;;;15.43;7.50;;;;;;;17.40;61.58;100692.34;4970581;28;20026;-56
2022/05/23 00:13:24;;;;;;;11.50;6.80;;;;;;;17.40;61.41;100692.34;4974741;28;20022;-56
2022/05/23 00:15:50;;;;;;;13.75;7.32;;;;;;;17.40;61.76;100686.97;4967880;28;20504;-54
2022/05/23 00:18:15;;;;;;;16.15;7.22;;;;;;;17.39;61.71;100683.47;4966637;28;20110;-52
2022/05/23 00:20:41;;;;;;;11.48;6.90;;;;;;;17.40;61.38;100684.28;4971589;28;20490;-53
2022/05/23 00:23:07;;;;;;;15.40;7.28;;;;;;;17.41;61.59;100680.56;4972631;28;20031;-56
2022/05/23 00:25:33;;;;;;;15.38;7.22;;;;;;;17.34;61.50;100678.75;4973602;28;20027;-55
2022/05/23 00:27:59;;;;;;;15.15;7.53;;;;;;;17.41;61.23;100686.75;4967169;28;20033;-55
2022/05/23 00:30:26;;;;;;;13.95;7.38;;;;;;;17.41;60.97;100683.25;4968729;28;20034;-53
2022/05/23 00:35:38;;;;;;;18.30;8.00;;;;;;;17.33;60.80;100662.84;4975700;28;20219;-55
2022/05/23 00:38:03;;;;;;;16.50;8.18;;;;;;;17.31;60.99;100656.88;4967377;28;21075;-55
2022/05/23 00:40:37;;;;;;;12.80;7.35;;;;;;;17.34;60.75;100659.94;4976390;28;20392;-54
2022/05/23 00:43:15;;;;;;;12.38;7.30;;;;;;;17.29;61.06;100653.59;4965357;28;20030;-55
2022/05/23 00:45:47;;;;;;;9.90;7.20;;;;;;;17.26;60.99;100662.09;4971556;28;20407;-54
2022/05/23 00:48:14;;;;;;;12.75;6.65;;;;;;;17.18;60.57;100654.31;4969868;28;21524;-55
2022/05/23 00:50:42;;;;;;;13.05;7.82;;;;;;;17.17;60.74;100642.75;4969638;28;20022;-55
2022/05/23 00:53:10;;;;;;;15.25;7.25;;;;;;;17.12;61.00;100641.78;4970984;28;20031;-54
2022/05/23 00:55:44;;;;;;;13.70;7.63;;;;;;;17.10;61.02;100639.31;4965773;28;20025;-55
2022/05/23 00:58:21;;;;;;;15.63;7.00;;;;;;;17.03;61.25;100628.59;4966847;28;20039;-55
2022/05/23 01:00:47;;;;;;;15.98;7.15;;;;;;;16.97;61.38;100625.97;4966103;28;20022;-56
2022/05/23 01:03:15;;;;;;;13.10;6.93;;;;;;;16.91;61.44;100622.31;4973052;28;20046;-56
2022/05/23 01:05:40;;;;;;;10.80;7.00;;;;;;;16.87;61.37;100618.44;4962269;28;20049;-55
2022/05/23 01:08:06;;;;;;;12.75;6.32;;;;;;;16.78;61.46;100619.75;4969149;28;20026;-55
2022/05/23 01:10:35;;;;;;;15.85;6.53;;;;;;;16.78;61.19;100627.78;4970305;28;20041;-56
2022/05/23 01:13:00;;;;;;;11.27;6.80;;;;;;;16.76;61.64;100620.97;4969659;28;20022;-56
2022/05/23 01:15:28;;;;;;;11.88;6.72;;;;;;;16.76;61.50;100629.84;4968562;28;20109;-55
2022/05/23 01:17:54;;;;;;;12.50;6.55;;;;;;;16.74;61.20;100631.91;4969908;28;20038;-54
2022/05/23 01:20:22;;;;;;;11.43;6.40;;;;;;;16.70;61.57;100633.38;4963893;28;20026;-54
2022/05/23 01:23:12;;;;;;;13.90;6.43;;;;;;;16.67;61.57;100629.28;4966521;28;20054;-55
2022/05/23 01:25:43;;;;;;;11.07;6.38;;;;;;;16.62;61.85;100634.44;4967357;28;20070;-54
2022/05/23 01:28:11;;;;;;;10.75;6.40;;;;;;;16.61;61.86;100630.13;4968976;28;20035;-55
2022/05/23 01:30:37;;;;;;;12.10;6.95;;;;;;;16.63;61.87;100619.16;4967416;28;20093;-57
2022/05/23 01:33:03;;;;;;;9.30;6.53;;;;;;;16.61;61.91;100623.94;4963068;28;20034;-55
2022/05/23 01:35:28;;;;;;;10.52;6.10;;;;;;;16.58;62.00;100617.13;4970791;28;20113;-55
2022/05/23 01:37:54;;;;;;;11.80;6.38;;;;;;;16.59;61.85;100626.00;4963912;28;20105;-56
2022/05/23 01:40:19;;;;;;;10.85;5.88;;;;;;;16.56;61.57;100626.44;4969462;28;20035;-56
2022/05/23 01:42:45;;;;;;;11.50;6.15;;;;;;;16.57;61.61;100623.53;4968621;28;20018;-54
2022/05/23 01:45:14;;;;;;;8.55;5.88;;;;;;;16.55;62.04;100624.78;4968864;28;20499;-53
2022/05/23 01:47:40;;;;;;;;;;;;;;;16.66;61.66;100624.94;4962775;28;20089;-56
2022/05/23 01:50:06;;;;;;;12.02;6.60;;;;;;;16.56;62.28;100618.41;4963810;28;20048;-56
2022/05/23 01:52:31;;;;;;;12.05;6.63;;;;;;;16.52;61.99;100618.00;4972134;28;20102;-55
2022/05/23 01:54:57;;;;;;;15.15;6.43;;;;;;;16.54;62.04;100623.16;4971600;28;20662;-54
2022/05/23 01:57:22;;;;;;;13.02;6.55;;;;;;;16.52;61.74;100626.06;4969051;28;20045;-55
2022/05/23 02:02:31;;;;;;;23.00;6.65;;;;;;;16.49;61.67;100618.44;4965129;28;20066;-55
2022/05/23 02:04:56;;;;;;;11.55;6.55;;;;;;;16.49;61.88;100620.31;4966243;28;20019;-56
2022/05/23 02:07:22;;;;;;;18.77;7.10;;;;;;;16.51;61.92;100612.88;4970245;28;20456;-56
2022/05/23 02:09:47;;;;;;;16.60;7.20;;;;;;;16.45;61.99;100600.28;4969287;28;20027;-56
2022/05/23 02:12:17;;;;;;;12.93;6.97;;;;;;;16.39;62.25;100593.94;4965508;28;20026;-56
2022/05/23 02:14:43;;;;;;;10.45;6.82;;;;;;;16.39;62.17;100596.63;4969114;28;20026;-53
2022/05/23 02:17:10;;;;;;;11.95;6.88;;;;;;;16.36;62.41;100595.19;4970820;28;20407;-55
2022/05/23 02:19:36;;;;;;;10.57;6.93;;;;;;;16.38;62.74;100587.75;4967958;28;20065;-55
2022/05/23 02:22:02;;;;;;;15.80;6.80;;;;;;;16.35;63.04;100588.19;4971699;28;20027;-56
2022/05/23 02:24:27;;;;;;;18.67;6.78;;;;;;;16.36;62.89;100583.66;4965189;28;20088;-56
2022/05/23 02:26:52;;;;;;;10.48;6.70;;;;;;;16.32;62.66;100582.44;4963524;28;20027;-55
2022/05/23 02:29:18;;;;;;;13.13;6.35;;;;;;;16.31;63.00;100584.31;4966285;28;20027;-57
2022/05/23 02:31:44;;;;;;;12.63;6.53;;;;;;;16.30;63.03;100584.50;4971860;28;20050;-55
2022/05/23 02:34:10;;;;;;;12.32;6.25;;;;;;;16.25;62.92;100579.81;4968415;28;20039;-52
2022/05/23 02:36:35;;;;;;;12.75;6.20;;;;;;;16.25;63.37;100571.75;4962796;28;20042;-56
2022/05/23 02:39:01;;;;;;;14.18;6.85;;;;;;;16.27;62.91;100568.88;4962521;28;20022;-57
2022/05/23 02:41:26;;;;;;;14.32;7.20;;;;;;;16.22;63.45;100564.16;4964489;28;20495;-56
2022/05/23 02:43:51;;;;;;;10.68;6.57;;;;;;;16.30;63.43;100569.25;4969575;28;20034;-56
2022/05/23 02:46:16;;;;;;;13.02;6.65;;;;;;;16.30;63.02;100571.13;4969098;28;20114;-56
2022/05/23 02:48:42;;;;;;;11.93;6.90;;;;;;;16.30;63.44;100569.25;4969883;28;20388;-56
2022/05/23 02:51:07;;;;;;;15.68;6.78;;;;;;;16.28;63.91;100559.78;4961180;28;20430;-54
2022/05/23 02:53:32;;;;;;;10.20;6.38;;;;;;;16.27;63.58;100561.66;4964001;28;20041;-56
2022/05/23 02:55:58;;;;;;;23.30;6.97;;;;;;;16.27;63.47;100547.44;4964209;28;20476;-54
2022/05/23 02:58:23;;;;;;;11.80;7.07;;;;;;;16.24;63.62;100540.66;4972855;28;20082;-55
2022/05/23 03:00:49;;;;;;;15.15;7.50;;;;;;;16.20;63.37;100539.44;4970961;28;20027;-56
2022/05/23 03:03:14;;;;;;;14.52;7.20;;;;;;;16.20;63.60;100534.06;4966629;28;20460;-56
2022/05/23 03:05:41;;;;;;;26.00;7.82;;;;;;;16.18;63.50;100516.53;4968590;28;20034;-55
2022/05/23 03:08:08;;;;;;;11.90;7.40;;;;;;;16.10;63.52;100501.56;4968756;28;20125;-56
2022/05/23 03:10:33;;;;;;;12.90;7.22;;;;;;;16.07;64.02;100496.63;4970825;28;20432;-56
2022/05/23 03:12:58;;;;;;;12.35;6.93;;;;;;;16.02;64.28;100477.72;4968934;28;20511;-56
2022/05/23 03:15:24;;;;;;;15.98;7.45;;;;;;;15.92;64.52;100474.69;4971884;28;20038;-53
2022/05/23 03:17:49;;;;;;;14.63;7.15;;;;;;;15.91;64.39;100462.34;4968113;28;20032;-55
2022/05/23 03:20:15;;;;;;;13.43;7.15;;;;;;;15.89;64.90;100459.00;4971440;28;20471;-56
2022/05/23 03:28:09;;;;;;;14.25;7.38;;;;;;;15.79;64.99;100456.81;4966363;28;20113;-57
2022/05/23 03:30:35;;;;;;;13.43;7.40;;;;;;;15.75;65.18;100464.44;4966209;28;20027;-56
2022/05/23 03:33:01;;;;;;;16.38;7.13;;;;;;;15.78;65.58;100468.56;4971750;28;20473;-57
2022/05/23 03:35:29;;;;;;;14.00;7.20;;;;;;;15.74;65.37;100460.13;4969733;28;20372;-56
2022/05/23 03:37:54;;;;;;;13.90;7.97;;;;;;;15.74;65.68;100452.09;4965553;28;20058;-55
2022/05/23 03:40:20;;;;;;;18.23;8.38;;;;;;;15.70;65.51;100445.53;4972037;28;20302;-55
2022/05/23 03:42:45;;;;;;;17.02;8.32;;;;;;;15.66;66.03;100443.50;4970075;28;20023;-56
2022/05/23 03:45:11;;;;;;;15.32;8.07;;;;;;;15.69;66.30;100443.91;4972699;28;20483;-56
2022/05/23 03:47:36;;;;;;;16.95;7.88;;;;;;;15.71;66.38;100436.47;4976802;28;20078;-57
2022/05/23 03:50:02;;;;;;;11.50;7.93;;;;;;;15.68;66.45;100425.38;4971413;28;20034;-56
2022/05/23 03:52:27;;;;;;;14.63;8.00;;;;;;;15.68;66.61;100425.38;4971761;28;20049;-57
2022/05/23 03:54:53;;;;;;;14.23;7.70;;;;;;;15.67;66.56;100421.06;4970942;28;20106;-55
2022/05/23 03:57:18;;;;;;;19.05;8.77;;;;;;;15.69;67.01;100427.00;4970920;28;20701;-54
2022/05/23 03:59:45;;;;;;;20.23;8.43;;;;;;;15.69;66.94;100419.81;4972035;28;20029;-56
2022/05/23 04:02:11;;;;;;;11.80;8.00;;;;;;;15.65;67.02;100421.28;4970904;28;20022;-57
2022/05/23 04:04:37;;;;;;;13.98;8.18;;;;;;;15.65;67.27;100418.59;4971894;28;20015;-56
2022/05/23 04:07:05;;;;;;;16.83;8.00;;;;;;;15.65;67.22;100407.88;4969259;28;20381;-53
2022/05/23 04:09:31;;;;;;;14.13;8.10;;;;;;;15.66;66.98;100414.06;4970881;28;20035;-56
2022/05/23 04:11:57;;;;;;;16.80;8.50;;;;;;;15.66;67.49;100422.09;4973839;28;20898;-56
2022/05/23 04:14:25;;;;;;;15.32;8.80;;;;;;;15.61;67.50;100414.72;4971388;28;20039;-55
2022/05/23 04:16:51;;;;;;;12.65;8.75;;;;;;;15.62;67.89;100410.19;4969818;28;20093;-55
2022/05/23 04:19:16;;;;;;;19.60;9.00;;;;;;;15.65;67.81;100410.56;4971543;28;20030;-55
2022/05/23 04:21:44;;;;;;;15.02;8.45;;;;;;;15.63;67.81;100399.25;4971352;28;20029;-56
2022/05/23 04:24:11;;;;;;;13.73;8.52;;;;;;;15.60;68.12;100388.94;4970110;28;20023;-56
2022/05/23 04:26:37;;;;;;;16.13;8.77;;;;;;;15.62;68.40;100394.13;4969965;28;20044;-55
2022/05/23 04:29:06;;;;;;;14.57;8.68;;;;;;;15.60;68.38;100383.59;4970926;28;20105;-56
2022/05/23 04:31:31;;;;;;;15.95;9.20;;;;;;;15.61;68.51;100377.22;4971674;28;20058;-55
2022/05/23 04:36:40;;;;;;;13.55;8.70;;;;;;;15.60;68.35;100380.09;4972575;28;20053;-56
2022/05/23 04:39:07;;;;;;;15.38;9.13;;;;;;;15.60;68.65;100386.28;4972429;28;20476;-55
2022/05/23 04:41:33;;;;;;;18.20;9.85;;;;;;;15.61;68.48;100390.63;4965945;28;20081;-54
2022/05/23 04:43:58;;;;;;;13.60;9.30;;;;;;;15.63;69.00;100393.06;4966740;28;20023;-56
2022/05/23 04:46:24;;;;;;;14.15;9.70;;;;;;;15.69;69.01;100392.22;4962894;28;20093;-56
2022/05/23 04:51:33;;;;;;;15.02;9.45;;;;;;;15.72;69.11;100383.75;4964776;28;20041;-56
2022/05/23 04:53:59;;;;;;;18.30;10.48;;;;;;;15.75;69.22;100369.94;4967141;28;20030;-55
2022/05/23 04:56:27;;;;;;;17.92;10.15;;;;;;;15.71;69.61;100372.22;4963714;28;20031;-56
2022/05/23 04:58:52;;;;;;;13.63;9.70;;;;;;;15.75;69.24;100367.25;4970197;28;20022;-56
2022/05/23 05:01:18;;;;;;;16.88;10.13;;;;;;;15.79;69.65;100373.81;4969810;28;20065;-54
2022/05/23 05:03:43;;;;;;;19.55;10.68;;;;;;;15.82;69.43;100370.69;4970760;28;20530;-56
2022/05/23 05:06:09;;;;;;;14.75;10.25;;;;;;;15.86;69.85;100368.41;4971105;28;20026;-55
2022/05/23 05:08:34;;;;;;;15.10;10.55;;;;;;;15.86;69.73;100352.34;4969230;28;20070;-56
2022/05/23 05:11:02;;;;;;;48.70;11.93;;;;;;;15.91;70.47;100360.56;4970636;28;20022;-57
2022/05/23 05:13:28;;;;;;;15.93;10.52;;;;;;;15.95;70.59;100367.13;4969284;28;20046;-56
2022/05/23 05:15:58;;;;;;;15.27;10.20;;;;;;;15.98;69.96;100361.34;4970350;28;20129;-56
2022/05/23 05:18:23;;;;;;;14.65;10.60;;;;;;;16.02;69.93;100354.50;4969570;28;20153;-55
2022/05/23 05:20:49;;;;;;;17.40;10.68;;;;;;;16.08;70.29;100346.41;4970259;28;20152;-55
2022/05/23 05:23:14;;;;;;;15.50;10.95;;;;;;;16.11;69.88;100339.78;4969300;28;20129;-55
2022/05/23 05:25:43;;;;;;;14.63;11.45;;;;;;;16.14;70.39;100330.50;4965178;28;20459;-55
2022/05/23 05:28:09;;;;;;;20.00;11.45;;;;;;;16.17;70.06;100324.69;4961600;28;20062;-56
2022/05/23 05:30:41;;;;;;;19.10;11.85;;;;;;;16.18;70.08;100308.41;4973617;28;20108;-55
2022/05/23 05:33:11;;;;;;;17.80;10.90;;;;;;;16.24;70.20;100315.56;4969765;28;20190;-54
2022/05/23 05:35:41;;;;;;;15.32;11.27;;;;;;;16.28;70.64;100308.72;4966745;28;20030;-55
2022/05/23 05:38:20;;;;;;;17.70;11.30;;;;;;;16.36;70.55;100307.63;4971809;28;20030;-55
2022/05/23 05:40:51;;;;;;;17.63;12.13;;;;;;;16.43;70.75;100308.38;4965669;28;20033;-56
2022/05/23 05:43:22;;;;;;;17.70;10.90;;;;;;;16.45;70.20;100306.28;4970554;28;20598;-56
2022/05/23 05:45:53;;;;;;;16.55;11.20;;;;;;;16.47;70.39;100309.56;4971314;28;20050;-56
2022/05/23 05:48:19;;;;;;;18.33;11.18;;;;;;;16.51;70.27;100308.09;4964209;28;20114;-55
2022/05/23 05:50:47;;;;;;;17.75;11.18;;;;;;;16.57;69.97;100295.66;4968320;28;20109;-55
2022/05/23 05:53:31;;;;;;;19.38;12.35;;;;;;;16.56;69.95;100288.66;4971046;28;20101;-56
2022/05/23 05:55:58;;;;;;;17.23;10.95;;;;;;;16.59;70.36;100282.84;4964077;28;20019;-54
2022/05/23 05:58:23;;;;;;;17.30;10.85;;;;;;;16.67;70.25;100282.56;4970193;28;20030;-53
2022/05/23 06:00:48;;;;;;;17.73;10.63;;;;;;;16.72;70.24;100278.16;4962293;28;20023;-55
2022/05/23 06:03:14;;;;;;;21.20;10.95;;;;;;;16.77;70.02;100276.66;4965031;28;20030;-55
2022/05/23 06:11:23;;;;;;;18.00;11.05;;;;;;;16.89;69.47;100270.34;4966995;28;20503;-54
2022/05/23 06:13:49;;;;;;;18.90;11.63;;;;;;;16.94;69.72;100270.47;4969823;28;20026;-55
2022/05/23 06:16:14;;;;;;;17.85;11.35;;;;;;;16.98;69.52;100277.03;4967847;28;20102;-55
2022/05/23 06:18:39;;;;;;;18.73;12.32;;;;;;;17.07;69.92;100282.09;4963844;28;20295;-55
2022/05/23 06:21:09;;;;;;;16.50;11.43;;;;;;;17.13;69.83;100279.31;4969845;28;20023;-56
2022/05/23 06:23:35;;;;;;;16.90;10.73;;;;;;;17.16;69.55;100278.03;4963785;28;20031;-54
2022/05/23 06:26:00;;;;;;;19.52;11.57;;;;;;;17.18;69.43;100270.59;4964714;28;20034;-56
2022/05/23 06:28:25;;;;;;;18.60;10.77;;;;;;;17.27;69.14;100267.34;4965424;28;20111;-55
2022/05/23 06:30:51;;;;;;;15.68;11.00;;;;;;;17.33;69.11;100262.91;4965853;28;20134;-55
2022/05/23 06:33:16;;;;;;;17.23;11.35;;;;;;;17.42;69.21;100258.88;4964678;28;20031;-53
2022/05/23 06:35:42;;;;;;;16.95;11.02;;;;;;;17.48;69.01;100257.97;4966637;28;20034;-55
2022/05/23 06:38:07;;;;;;;15.02;10.80;;;;;;;17.53;69.04;100247.34;4972541;28;20133;-56
2022/05/23 06:40:34;;;;;;;18.15;10.48;;;;;;;17.58;69.26;100243.97;4970564;28;20055;-55
2022/05/23 06:43:01;;;;;;;16.65;10.88;;;;;;;17.61;69.16;100233.56;4965801;28;20030;-55
2022/05/23 06:45:27;;;;;;;17.58;10.27;;;;;;;17.69;68.67;100232.47;4966965;28;20114;-55
2022/05/23 06:47:52;;;;;;;17.35;10.75;;;;;;;17.73;68.70;100230.13;4967821;28;20027;-54
2022/05/23 06:50:18;;;;;;;15.55;10.23;;;;;;;17.75;68.40;100230.72;4970414;28;20113;-56
2022/05/23 06:52:43;;;;;;;15.43;10.00;;;;;;;17.83;67.90;100233.88;4970718;28;20066;-56
2022/05/23 06:55:08;;;;;;;17.30;9.90;;;;;;;17.88;67.85;100228.59;4972175;28;20504;-53
2022/05/23 06:57:34;;;;;;;13.38;9.27;;;;;;;17.91;67.70;100235.38;4968636;28;20030;-55
2022/05/23 06:59:59;;;;;;;15.10;10.00;;;;;;;17.98;67.60;100232.59;4970690;28;20408;-56
2022/05/23 07:02:24;;;;;;;14.25;10.00;;;;;;;18.02;67.15;100226.53;4965322;28;20023;-55
2022/05/23 07:13:01;;;;;;;16.70;10.13;;;;;;;18.12;66.42;100226.75;4967354;28;20230;-56
2022/05/23 07:15:27;;;;;;;15.07;9.55;;;;;;;18.16;66.14;100235.97;4971895;28;20031;-52
2022/05/23 07:17:53;;;;;;;16.15;9.48;;;;;;;18.15;66.40;100234.31;4971708;28;20022;-55
2022/05/23 07:20:18;;;;;;;16.02;9.80;;;;;;;18.19;66.29;100245.44;4972754;28;20473;-54
2022/05/23 07:22:44;;;;;;;14.95;9.73;;;;;;;18.25;66.50;100239.13;4970809;28;20030;-54
2022/05/23 07:25:09;;;;;;;12.52;10.10;;;;;;;18.29;66.84;100236.78;4971060;28;20034;-56
2022/05/23 07:27:34;;;;;;;15.30;9.68;;;;;;;18.34;66.60;100226.97;4971150;28;20026;-55
2022/05/23 07:30:00;;;;;;;16.60;9.95;;;;;;;18.39;66.87;100228.94;4972765;28;20022;-55
2022/05/23 07:32:26;;;;;;;15.48;9.13;;;;;;;18.38;66.27;100224.59;4972288;28;20027;-52
2022/05/23 07:34:51;;;;;;;13.32;8.68;;;;;;;18.38;65.99;100220.03;4972864;28;20029;-55
2022/05/23 07:37:16;;;;;;;14.45;8.73;;;;;;;18.45;66.05;100219.91;4971246;28;20019;-55
2022/05/23 07:39:42;;;;;;;16.55;8.90;;;;;;;18.46;65.72;100213.47;4968263;28;20066;-56
2022/05/23 07:42:09;;;;;;;13.57;8.55;;;;;;;18.52;65.55;100226.00;4969056;28;20061;-54
2022/05/23 07:44:36;;;;;;;10.45;8.77;;;;;;;18.56;65.39;100225.28;4972246;28;20039;-54
2022/05/23 07:47:03;;;;;;;12.77;8.48;;;;;;;18.63;65.52;100230.53;4971510;28;20126;-56
2022/05/23 07:49:28;;;;;;;15.00;8.43;;;;;;;18.68;65.58;100225.25;4972246;28;20034;-55
2022/05/23 07:51:56;;;;;;;15.90;8.52;;;;;;;18.77;65.54;100226.50;4971473;28;20094;-54
2022/05/23 08:02:34;;;;;;;15.88;10.75;;;;;;;18.95;64.06;100217.44;4971206;28;20336;-55
2022/05/23 08:05:00;;;;;;;17.75;10.68;;;;;;;18.96;64.31;100210.19;4971561;28;20533;-55
2022/05/23 08:07:28;;;;;;;17.13;10.88;;;;;;;19.02;64.45;100210.03;4971024;28;20023;-55
2022/05/23 08:09:55;;;;;;;16.30;10.75;;;;;;;19.04;64.15;100209.78;4970731;28;20023;-56
2022/05/23 08:12:20;;;;;;;14.52;10.00;;;;;;;19.00;63.49;100204.09;4971946;28;20018;-52
2022/05/23 08:14:45;;;;;;;13.27;9.57;;;;;;;18.99;63.37;100213.22;4971880;28;20023;-55
2022/05/23 08:17:11;;;;;;;11.98;9.48;;;;;;;19.01;63.29;100205.72;4969241;28;20026;-53
2022/05/23 08:19:36;;;;;;;14.13;9.10;;;;;;;19.04;63.27;100190.94;4970570;28;20023;-55
2022/05/23 08:22:03;;;;;;;14.40;9.23;;;;;;;19.07;63.14;100185.09;4970381;28;20443;-56
2022/05/23 08:24:28;;;;;;;14.23;9.52;;;;;;;19.12;63.47;100180.63;4971341;28;20030;-57
2022/05/23 08:26:53;;;;;;;12.65;9.30;;;;;;;19.15;63.21;100177.44;4970802;28;20384;-55
2022/05/23 08:29:19;;;;;;;17.27;10.07;;;;;;;19.17;63.01;100174.50;4971030;28;20026;-55
2022/05/23 08:31:44;;;;;;;15.20;9.27;;;;;;;19.22;63.12;100179.16;4970451;28;20492;-56
2022/05/23 08:34:10;;;;;;;14.40;9.32;;;;;;;19.23;63.07;100180.78;4966893;28;20045;-55
2022/05/23 08:36:35;;;;;;;14.82;9.07;;;;;;;19.24;62.96;100180.56;4977057;28;20019;-52
2022/05/23 08:39:02;;;;;;;14.18;8.25;;;;;;;19.26;62.89;100175.75;4970688;28;20030;-55
2022/05/23 08:41:35;;;;;;;14.38;9.27;;;;;;;19.28;63.34;100172.81;4971531;28;20030;-54
2022/05/23 08:44:16;;;;;;;12.45;8.52;;;;;;;19.35;63.36;100168.88;4970488;28;20480;-54
2022/05/23 08:47:01;;;;;;;12.73;8.70;;;;;;;19.41;62.94;100157.16;4963603;28;20073;-54
2022/05/23 08:49:45;;;;;;;13.65;8.80;;;;;;;19.48;62.98;100148.91;4970677;28;20245;-56
2022/05/23 08:52:21;;;;;;;14.98;9.15;;;;;;;19.52;62.82;100147.34;4969882;28;20126;-56
2022/05/23 08:54:56;;;;;;;13.30;9.30;;;;;;;19.52;63.16;100149.22;4970961;28;20064;-55
2022/05/23 08:57:30;;;;;;;15.10;8.93;;;;;;;19.56;63.11;100151.19;4968922;28;20030;-52
2022/05/23 09:00:02;;;;;;;15.57;9.10;;;;;;;19.61;63.36;100142.38;4971088;28;20031;-55
2022/05/23 09:02:34;;;;;;;13.20;8.98;;;;;;;19.60;63.33;100141.56;4969877;28;20023;-53
2022/05/23 09:05:07;;;;;;;16.25;9.38;;;;;;;19.65;63.33;100138.13;4965475;28;20045;-57
2022/05/23 09:07:47;;;;;;;14.73;9.23;;;;;;;19.70;63.32;100132.84;4965865;28;20035;-53
2022/05/23 09:10:20;;;;;;;16.58;9.30;;;;;;;19.78;64.04;100121.63;4969683;28;20035;-54
2022/05/23 09:12:45;;;;;;;15.20;9.02;;;;;;;19.83;63.30;100112.78;4970036;28;20027;-52
2022/05/23 09:15:10;;;;;;;14.18;8.70;;;;;;;19.92;63.17;100108.59;4965811;28;20081;-55
2022/05/23 09:17:42;;;;;;;15.88;8.77;;;;;;;19.98;62.79;100107.63;4967826;28;20034;-53
2022/05/23 09:20:18;;;;;;;12.85;8.80;;;;;;;20.07;62.44;100100.72;4968764;28;20019;-56
2022/05/23 09:22:53;;;;;;;14.32;8.60;;;;;;;20.11;62.17;100102.66;4965580;28;20031;-54
2022/05/23 09:25:22;;;;;;;14.50;8.32;;;;;;;20.09;61.88;100098.56;4964376;28;20043;-55
2022/05/23 09:28:04;;;;;;;11.38;8.00;;;;;;;20.06;61.74;100099.09;4968247;28;20492;-55
2022/05/23 09:30:29;;;;;;;13.75;7.18;;;;;;;20.02;61.67;100090.69;4967783;28;20053;-55
2022/05/23 09:33:08;;;;;;;14.15;7.45;;;;;;;20.01;61.30;100094.44;4968923;28;20485;-55
2022/05/23 09:35:49;;;;;;;13.15;7.20;;;;;;;20.03;61.30;100091.50;4970682;28;20030;-56
2022/05/23 09:38:27;;;;;;;13.38;6.72;;;;;;;20.03;60.64;100084.22;4968725;28;20200;-54
2022/05/23 09:40:53;;;;;;;13.70;7.10;;;;;;;20.05;60.78;100075.88;4967754;28;20030;-52
2022/05/23 09:49:21;;;;;;;13.23;7.13;;;;;;;20.19;61.19;100057.44;4969583;28;20109;-56
2022/05/23 09:52:00;;;;;;;10.18;7.30;;;;;;;20.23;61.16;100045.06;4969702;28;20481;-56
2022/05/23 09:54:28;;;;;;;;;;;;;;;20.40;61.51;100029.66;4963847;28;20117;-56
2022/05/23 09:56:54;;;;;;;14.17;8.50;;;;;;;20.48;61.91;100023.78;4967383;28;20239;-56
2022/05/23 09:59:28;;;;;;;13.38;8.25;;;;;;;20.51;61.12;100020.56;4962171;28;20425;-55
2022/05/23 10:01:54;;;;;;;13.70;7.75;;;;;;;20.56;60.79;100017.94;4963288;28;20023;-56
2022/05/23 10:04:26;;;;;;;12.63;6.97;;;;;;;20.60;60.65;100013.66;4973204;28;20554;-56
2022/05/23 10:06:52;;;;;;;8.80;7.20;;;;;;;20.61;60.58;100009.91;4967167;28;20050;-56
2022/05/23 10:09:33;;;;;;;16.45;7.38;;;;;;;20.62;59.66;100027.72;4966880;28;20023;-55
2022/05/23 10:12:02;;;;;;;13.77;7.40;;;;;;;20.75;59.97;100009.44;4962107;28;20031;-55
2022/05/23 10:14:42;;;;;;;13.45;7.65;;;;;;;20.86;59.34;100009.28;4965299;28;20039;-55
2022/05/23 10:17:08;;;;;;;14.52;7.72;;;;;;;20.89;58.72;99997.16;4965925;28;20034;-55
2022/05/23 10:19:37;;;;;;;11.48;7.00;;;;;;;20.97;58.45;99988.56;4969095;28;20511;-56
2022/05/23 10:22:20;;;;;;;12.90;7.63;;;;;;;21.01;58.14;99989.69;4966523;28;20019;-56
2022/05/23 10:24:53;;;;;;;13.30;7.22;;;;;;;21.12;58.42;99991.38;4970935;28;20489;-56
2022/05/23 10:27:32;;;;;;;15.95;7.72;;;;;;;21.16;58.09;99989.78;4962378;28;20149;-56
2022/05/23 10:30:00;;;;;;;14.18;7.45;;;;;;;21.28;58.26;99993.13;4964335;28;20061;-57
2022/05/23 10:32:43;;;;;;;12.57;7.45;;;;;;;21.43;57.93;99999.69;4967570;28;20058;-56
2022/05/23 10:35:32;;;;;;;15.48;7.60;;;;;;;21.64;57.71;100001.41;4969466;28;20066;-56
2022/05/23 10:42:07;;;;;;;14.00;8.05;;;;;;;21.87;57.46;100002.84;4971938;28;20034;-56
2022/05/23 10:44:41;;;;;;;12.73;7.72;;;;;;;22.43;56.99;100003.00;4967058;28;20041;-56
2022/05/23 10:47:37;;;;;;;12.40;7.82;;;;;;;22.58;56.31;100000.31;4969144;28;20085;-55
2022/05/23 10:50:12;;;;;;;13.88;7.70;;;;;;;22.52;55.76;99990.53;4968780;28;20026;-56
2022/05/23 10:53:15;;;;;;;13.70;8.00;;;;;;;22.56;55.11;99973.53;4972959;28;20671;-57
2022/05/23 10:56:00;;;;;;;13.77;8.23;;;;;;;22.79;55.08;99971.31;4972848;28;20642;-55
2022/05/23 10:58:42;;;;;;;9.48;7.13;;;;;;;23.00;54.55;99966.72;4972609;28;20117;-56
2022/05/23 11:01:27;;;;;;;12.95;7.20;;;;;;;23.20;54.52;99952.34;4971230;28;20474;-56
2022/05/23 11:04:13;;;;;;;12.13;6.82;;;;;;;23.37;54.03;99947.38;4970379;28;20022;-54
2022/05/23 11:07:06;;;;;;;14.32;8.55;;;;;;;23.43;53.10;99930.03;4971745;28;20664;-54
2022/05/23 11:09:50;;;;;;;12.55;7.90;;;;;;;23.28;52.39;99939.03;4966579;28;20077;-57
2022/05/23 11:12:40;;;;;;;11.57;7.95;;;;;;;23.20;52.04;99933.38;4969681;28;20034;-56
2022/05/23 11:15:26;;;;;;;14.82;8.43;;;;;;;23.33;52.63;99935.50;4970860;28;20030;-54
2022/05/23 11:18:07;;;;;;;12.18;8.25;;;;;;;23.52;52.26;99928.38;4966648;28;20043;-56
2022/05/23 11:20:38;;;;;;;12.95;8.43;;;;;;;23.62;52.71;99914.78;4972665;28;20031;-56
2022/05/23 11:23:27;;;;;;;12.57;8.35;;;;;;;23.63;51.96;99902.03;4972405;28;20018;-56
2022/05/23 11:26:07;;;;;;;15.95;8.25;;;;;;;23.79;51.81;99885.41;4969268;28;20384;-55
2022/05/23 11:34:36;;;;;;;13.32;8.18;;;;;;;23.75;50.65;99853.72;4971976;28;20042;-56
2022/05/23 11:39:52;;;;;;;17.45;7.20;;;;;;;23.68;50.64;99842.38;4970618;28;20069;-55
2022/05/23 11:42:29;;;;;;;11.55;7.10;;;;;;;23.62;50.36;99829.94;4971327;28;20058;-56
2022/05/23 11:44:57;;;;;;;16.50;7.70;;;;;;;23.57;50.01;99828.09;4968044;28;20109;-55
2022/05/23 11:47:28;;;;;;;10.55;7.70;;;;;;;23.56;50.53;99837.31;4971001;28;20034;-56
2022/05/23 11:50:04;;;;;;;12.25;7.93;;;;;;;23.50;50.39;99835.69;4972272;28;20061;-56
2022/05/23 11:52:34;;;;;;;11.35;7.68;;;;;;;23.57;51.04;99828.09;4970984;28;20035;-57
2022/05/23 11:54:59;;;;;;;11.05;7.50;;;;;;;23.61;50.75;99822.91;4970286;28;20097;-56
2022/05/23 11:57:37;;;;;;;12.23;7.55;;;;;;;23.68;50.30;99828.81;4975725;28;20030;-56
2022/05/23 12:00:34;;;;;;;11.30;7.70;;;;;;;23.79;51.13;99817.63;4973930;28;20097;-55
2022/05/23 12:03:17;;;;;;;11.25;6.15;;;;;;;23.83;50.36;99814.34;4966094;28;20085;-57
2022/05/23 12:05:43;;;;;;;9.48;6.28;;;;;;;23.70;49.95;99804.94;4962955;28;20065;-57
2022/05/23 12:08:29;;;;;;;10.65;5.75;;;;;;;23.64;50.29;99811.50;4958228;28;20051;-55
2022/05/23 12:10:59;;;;;;;11.05;5.72;;;;;;;23.52;49.88;99806.41;4968159;28;20027;-55
2022/05/23 12:13:33;;;;;;;11.00;6.50;;;;;;;23.36;49.55;99797.56;4970287;28;20026;-55
2022/05/23 12:16:36;;;;;;;10.00;5.45;;;;;;;23.36;49.85;99792.13;4969651;28;20113;-56
2022/05/23 12:19:46;;;;;;;12.75;5.57;;;;;;;23.32;50.28;99798.41;4964142;28;20034;-57
2022/05/23 12:23:07;;;;;;;11.43;5.30;;;;;;;23.27;50.41;99791.13;4970469;28;20031;-56
2022/05/23 12:25:33;;;;;;;11.20;5.18;;;;;;;23.14;50.55;99800.69;4952466;28;20070;-55